CheckWX is a tool to help pilots better visualize weather data.  It is not intended as a substitute for an official pre-flight weather briefing.

11:51:56 UTC

KSZL TAF
Whiteman AFB Airport
Knob Noster, Missouri, USA
TAF KSZL 041100Z 0411/0517 VRB03KT 8000 BR BKN004 QNH2993INS BECMG 0412/0413 06006KT 9999 NSW BKN050 QNH2994INS TEMPO 0414/0418 08012G18KT 6000 -TSRA BKN020CB BECMG 0417/0418 09010G15KT 9999 BKN040 QNH2988INS BECMG 0422/0423 08006KT 9999 SCT050 QNH2990INS TX29/0420Z TN22/0411Z

Jul-4@
11:00 UTC

Jul-4 @ 11:00 UTC

Jul-4@
12:00 UTC

Jul-4 @ 12:00 UTC

TAF KSZL 041100Z 0411/0517 VRB03KT 8000 BR BKN004 QNH2993INS
Wind
  • Variable at 3 KTS
Conditions
Mist
Cloud Levels
  • Broken at 400' AGL

Jul-4@
12:00 UTC

Jul-4 @ 12:00 UTC

Jul-4@
17:00 UTC

Jul-4 @ 17:00 UTC

BECMG 0412/0413 06006KT 9999 NSW BKN050 QNH2994INS

Becoming

Becoming Conditions expected by Sat, Jul 4, 2020 @ 13:00 UTC

Wind
  • 060° at 6 KTS
Conditions
No significant weather
Cloud Levels
  • Broken at 5,000' AGL

Jul-4@
14:00 UTC

Jul-4 @ 14:00 UTC

Jul-4@
18:00 UTC

Jul-4 @ 18:00 UTC

TEMPO 0414/0418 08012G18KT 6000 -TSRA BKN020CB

Temporary

Temporary Changes expected for less than half the time period

Wind
  • 080° at 12 KTS
  • {Gusting to 18 KTS
Conditions
Light Thunderstorm, Rain
Cloud Levels
  • Broken at 2,000' AGL

Jul-4@
17:00 UTC

Jul-4 @ 17:00 UTC

Jul-4@
22:00 UTC

Jul-4 @ 22:00 UTC

BECMG 0417/0418 09010G15KT 9999 BKN040 QNH2988INS

Becoming

Becoming Conditions expected by Sat, Jul 4, 2020 @ 18:00 UTC

Wind
  • 090° at 10 KTS
  • {Gusting to 15 KTS
Conditions
No significant weather
Cloud Levels
  • Broken at 4,000' AGL

Jul-4@
22:00 UTC

Jul-4 @ 22:00 UTC

Jul-5@
17:00 UTC

Jul-5 @ 17:00 UTC

BECMG 0422/0423 08006KT 9999 SCT050 QNH2990INS TX29/0420Z TN22/0411Z

Becoming

Becoming Conditions expected by Sat, Jul 4, 2020 @ 23:00 UTC

Wind
  • 080° at 6 KTS
Conditions
No significant weather
Cloud Levels
  • Scattered at 5,000' AGL